Аэропорт: Брянск. Брянск

ICAO: UUBP

METAR:
2019/01/21 15:00
UUBP 211500Z 25004MPS 9999 SCT020 M08/M11 Q1013 R34/490335 NOSIG RMK QFE743/0990
METAR:
2010/09/15 10:45
TAF TAF UUBP 151045Z 1512/1524 18005G10MPS 9999 SCT030